Time;durP1;ratioP1;P1;durP2;ratioP2;P2;SDS_P1;SDS_P2;PMS_P1;PMS_P2;Temp;Humidity;BMP_temperature;BMP_pressure;BME280_temperature;BME280_humidity;BME280_pressure;Samples;Min_cycle;Max_cycle;Signal;HPM_P1;HPM_P2
2022/09/14 00:01:15;;;;;;;12.07;9.25;;;;;;;8.47;100.00;94933.69;5101185;27;20886;-67
2022/09/14 00:04:16;;;;;;;12.13;9.55;;;;;;;8.48;100.00;94935.28;5099560;27;20050;-66
2022/09/14 00:06:43;;;;;;;12.90;9.35;;;;;;;8.43;100.00;94932.53;5089482;27;20048;-67
2022/09/14 00:09:18;;;;;;;12.05;9.73;;;;;;;8.44;100.00;94934.09;5100917;27;20817;-66
2022/09/14 00:11:45;;;;;;;11.63;9.18;;;;;;;8.45;100.00;94942.69;5098398;27;20047;-66
2022/09/14 00:14:13;;;;;;;10.10;8.55;;;;;;;8.49;100.00;94936.84;5100814;27;20120;-65
2022/09/14 00:16:41;;;;;;;11.55;8.57;;;;;;;8.46;100.00;94931.28;5098138;27;20060;-66
2022/09/14 00:19:18;;;;;;;9.35;8.35;;;;;;;8.37;100.00;94933.34;5101470;27;20058;-66
2022/09/14 00:21:48;;;;;;;9.85;8.77;;;;;;;8.42;100.00;94933.53;5098787;27;20715;-66
2022/09/14 00:24:15;;;;;;;9.80;8.30;;;;;;;8.38;100.00;94929.75;5083127;28;20105;-66
2022/09/14 00:26:42;;;;;;;11.48;9.25;;;;;;;8.38;100.00;94945.31;5080679;28;20634;-67
2022/09/14 00:29:09;;;;;;;9.57;8.57;;;;;;;8.33;100.00;94939.97;5101031;27;20042;-66
2022/09/14 00:31:38;;;;;;;10.93;9.02;;;;;;;8.32;100.00;94940.97;5099548;27;20043;-65
2022/09/14 00:34:07;;;;;;;13.60;9.23;;;;;;;8.28;100.00;94945.00;5098375;27;20541;-66
2022/09/14 00:36:43;;;;;;;11.65;9.02;;;;;;;8.23;100.00;94933.47;5099285;27;20421;-67
2022/09/14 00:39:11;;;;;;;14.20;9.07;;;;;;;8.25;100.00;94930.66;5096370;27;20043;-67
2022/09/14 00:41:40;;;;;;;11.05;9.30;;;;;;;8.28;100.00;94924.25;5081267;27;20804;-67
2022/09/14 00:44:10;;;;;;;12.55;9.27;;;;;;;8.33;100.00;94937.38;5096337;27;20051;-66
2022/09/14 00:46:50;;;;;;;13.10;9.52;;;;;;;8.39;100.00;94936.50;5100356;27;20086;-67
2022/09/14 00:49:20;;;;;;;14.30;9.93;;;;;;;8.23;100.00;94910.13;5096592;27;20035;-66
2022/09/14 00:51:53;;;;;;;10.38;8.98;;;;;;;8.40;100.00;94938.09;5099687;27;20293;-67
2022/09/14 00:54:20;;;;;;;11.73;9.05;;;;;;;8.36;100.00;94948.13;5096145;27;20100;-66
2022/09/14 00:56:48;;;;;;;11.80;9.40;;;;;;;8.29;100.00;94946.59;5101513;27;20047;-66
2022/09/14 00:59:22;;;;;;;10.30;8.50;;;;;;;8.19;100.00;94936.69;5096086;27;20035;-67
2022/09/14 01:01:49;;;;;;;10.48;9.07;;;;;;;8.24;100.00;94939.44;5082442;27;20051;-66
2022/09/14 01:04:16;;;;;;;9.38;7.85;;;;;;;8.22;100.00;94937.06;5098443;27;20050;-65
2022/09/14 01:07:05;;;;;;;10.27;8.48;;;;;;;8.26;100.00;94947.03;5100641;27;20067;-67
2022/09/14 01:09:57;;;;;;;8.95;8.05;;;;;;;8.21;100.00;94945.88;5096397;27;20153;-67
2022/09/14 01:13:01;;;;;;;12.70;9.20;;;;;;;8.12;100.00;94936.78;5099908;28;20074;-67
2022/09/14 01:15:37;;;;;;;17.35;9.23;;;;;;;8.07;100.00;94939.19;5096020;27;20035;-66
2022/09/14 01:18:13;;;;;;;11.65;9.00;;;;;;;8.06;100.00;94937.59;5098284;28;20138;-66
2022/09/14 01:21:09;;;;;;;11.05;8.48;;;;;;;8.04;100.00;94934.44;5098991;27;20043;-66
2022/09/14 01:24:05;;;;;;;10.27;8.38;;;;;;;7.91;100.00;94929.34;5098825;28;20146;-66
2022/09/14 01:26:59;;;;;;;9.75;8.52;;;;;;;7.97;100.00;94938.88;5096591;28;20207;-66
2022/09/14 01:29:29;;;;;;;12.75;9.10;;;;;;;7.94;100.00;94934.09;5078994;28;20135;-66
2022/09/14 01:32:17;;;;;;;12.55;8.82;;;;;;;7.91;100.00;94939.72;5096234;28;20071;-66
2022/09/14 01:35:10;;;;;;;11.80;9.75;;;;;;;7.85;100.00;94947.34;5098067;28;20135;-66
2022/09/14 01:37:49;;;;;;;10.10;8.43;;;;;;;7.83;100.00;94951.94;5095857;27;20100;-67
2022/09/14 01:40:29;;;;;;;12.90;9.38;;;;;;;7.85;100.00;94952.53;5098412;28;20078;-67
2022/09/14 01:43:07;;;;;;;9.45;8.30;;;;;;;7.80;100.00;94939.41;5095805;28;20134;-67
2022/09/14 01:45:37;;;;;;;10.73;7.90;;;;;;;7.65;100.00;94925.94;5095619;28;20051;-66
2022/09/14 01:48:07;;;;;;;9.45;8.02;;;;;;;7.73;100.00;94938.66;5096189;28;20040;-66
2022/09/14 01:50:39;;;;;;;11.55;9.00;;;;;;;7.73;100.00;94949.03;5100736;28;20728;-66
2022/09/14 01:53:33;;;;;;;11.80;9.18;;;;;;;7.72;100.00;94947.41;5099068;27;20043;-66
2022/09/14 01:56:14;;;;;;;11.65;8.85;;;;;;;7.81;100.00;94941.00;5100611;27;20804;-67
2022/09/14 01:59:10;;;;;;;12.02;8.82;;;;;;;7.82;100.00;94941.78;5081425;27;20698;-67
2022/09/14 02:01:42;;;;;;;10.50;8.25;;;;;;;7.76;100.00;94948.59;5101033;28;20593;-66
2022/09/14 02:04:25;;;;;;;8.65;7.75;;;;;;;7.73;100.00;94949.03;5099097;27;20120;-67
2022/09/14 02:06:52;;;;;;;9.45;8.38;;;;;;;7.72;100.00;94947.41;5104495;27;21514;-67
2022/09/14 02:09:25;;;;;;;12.07;8.27;;;;;;;7.68;100.00;94946.25;5099840;27;20132;-67
2022/09/14 02:11:54;;;;;;;11.07;8.07;;;;;;;7.64;100.00;94951.06;5101663;27;20074;-66
2022/09/14 02:14:21;;;;;;;10.55;8.10;;;;;;;7.65;100.00;94951.84;5099149;27;20851;-66
2022/09/14 02:16:48;;;;;;;10.40;8.60;;;;;;;7.51;100.00;94945.16;5102622;28;20036;-67
2022/09/14 02:19:15;;;;;;;9.63;8.48;;;;;;;7.56;100.00;94955.69;5080613;28;20059;-66
2022/09/14 02:21:49;;;;;;;13.00;8.68;;;;;;;7.56;100.00;94953.09;5103492;27;20055;-66
2022/09/14 02:24:16;;;;;;;10.57;8.70;;;;;;;7.57;100.00;94939.16;5099457;27;20039;-66
2022/09/14 02:26:44;;;;;;;10.63;8.73;;;;;;;7.57;100.00;94944.34;5083727;28;20067;-67
2022/09/14 02:29:11;;;;;;;11.68;8.98;;;;;;;7.60;100.00;94939.53;5099971;27;20040;-66
2022/09/14 02:31:52;;;;;;;9.68;7.97;;;;;;;7.64;100.00;94942.50;5102611;27;20110;-66
2022/09/14 02:34:56;;;;;;;10.60;8.32;;;;;;;7.60;100.00;94943.94;5098528;27;20124;-66
2022/09/14 02:37:58;;;;;;;12.27;8.25;;;;;;;7.51;100.00;94939.97;5104237;27;20124;-66
2022/09/14 02:40:31;;;;;;;11.60;8.48;;;;;;;7.41;100.00;94941.22;5022032;27;20735;-67
2022/09/14 02:43:17;;;;;;;15.77;9.30;;;;;;;7.47;100.00;94939.59;5104405;27;20039;-65
2022/09/14 02:46:02;;;;;;;10.70;8.73;;;;;;;7.49;100.00;94949.75;5097929;27;20048;-67
2022/09/14 02:48:38;;;;;;;10.95;8.93;;;;;;;7.50;100.00;94954.75;5103470;27;20394;-67
2022/09/14 02:51:13;;;;;;;12.23;9.15;;;;;;;7.42;100.00;94948.00;5097448;27;20040;-67
2022/09/14 02:54:01;;;;;;;10.23;8.65;;;;;;;7.36;100.00;94948.03;5107795;27;20044;-67
2022/09/14 02:56:29;;;;;;;11.88;8.77;;;;;;;7.31;100.00;94961.63;5099431;27;20047;-66
2022/09/14 02:58:55;;;;;;;11.65;9.05;;;;;;;7.38;100.00;94962.41;5104051;27;20124;-67
2022/09/14 03:01:23;;;;;;;11.55;8.68;;;;;;;7.36;100.00;94956.59;5102202;27;20561;-67
2022/09/14 03:03:50;;;;;;;10.05;8.30;;;;;;;7.36;100.00;94953.22;5104443;27;20051;-67
2022/09/14 03:06:17;;;;;;;11.68;8.25;;;;;;;7.28;100.00;94947.28;5100849;27;20059;-66
2022/09/14 03:08:45;;;;;;;13.75;9.45;;;;;;;7.26;100.00;94951.09;5103187;27;20509;-67
2022/09/14 03:11:12;;;;;;;11.27;8.85;;;;;;;7.20;100.00;94950.13;5082958;28;20126;-67
2022/09/14 03:13:39;;;;;;;11.15;8.77;;;;;;;7.12;100.00;94941.78;5106609;27;20125;-67
2022/09/14 03:16:09;;;;;;;12.32;8.95;;;;;;;7.18;100.00;94951.31;5106446;27;20664;-67
2022/09/14 03:18:36;;;;;;;12.95;9.75;;;;;;;7.24;100.00;94945.31;5100891;27;20043;-66
2022/09/14 03:21:05;;;;;;;9.95;8.32;;;;;;;7.26;100.00;94940.72;5086733;27;20075;-67
2022/09/14 03:23:37;;;;;;;10.23;9.02;;;;;;;7.26;100.00;94951.09;5108330;27;20048;-66
2022/09/14 03:26:09;;;;;;;12.90;10.13;;;;;;;7.28;100.00;94941.31;5102316;27;20031;-66
2022/09/14 03:28:36;;;;;;;12.38;9.18;;;;;;;7.29;100.00;94945.47;5097530;27;20040;-67
2022/09/14 03:31:05;;;;;;;18.83;10.65;;;;;;;7.30;100.00;94948.88;5101998;27;20124;-67
2022/09/14 03:33:32;;;;;;;14.65;9.80;;;;;;;7.28;100.00;94952.47;5099502;27;20038;-66
2022/09/14 03:36:00;;;;;;;11.20;9.15;;;;;;;7.30;100.00;94954.84;5101740;27;20569;-66
2022/09/14 03:38:28;;;;;;;17.08;9.07;;;;;;;7.27;100.00;94950.06;5098883;27;20051;-67
2022/09/14 03:40:58;;;;;;;13.02;9.30;;;;;;;7.28;100.00;94951.66;5100891;27;20123;-66
2022/09/14 03:43:25;;;;;;;11.38;9.35;;;;;;;7.29;100.00;94948.06;5100183;27;20489;-67
2022/09/14 03:45:52;;;;;;;14.00;10.35;;;;;;;7.34;100.00;94948.25;5099882;27;20051;-67
2022/09/14 03:48:19;;;;;;;18.20;11.30;;;;;;;7.40;100.00;94949.19;5101056;27;20336;-67
2022/09/14 03:50:46;;;;;;;14.02;10.07;;;;;;;7.42;100.00;94947.22;5099017;27;20063;-65
2022/09/14 03:53:12;;;;;;;16.95;12.50;;;;;;;7.46;100.00;94951.78;5102086;27;20716;-66
2022/09/14 03:55:40;;;;;;;18.27;11.10;;;;;;;7.54;100.00;94949.94;5100450;27;20517;-67
2022/09/14 03:58:07;;;;;;;29.13;13.32;;;;;;;7.56;100.00;94953.09;5100820;27;20039;-68
2022/09/14 04:00:35;;;;;;;18.02;10.43;;;;;;;7.58;100.00;94961.47;5100675;27;20703;-66
2022/09/14 04:03:02;;;;;;;16.63;11.65;;;;;;;7.55;100.00;94960.09;5080238;28;20579;-67
2022/09/14 04:05:29;;;;;;;14.32;10.68;;;;;;;7.46;100.00;94964.72;5100124;27;20077;-67
2022/09/14 04:07:56;;;;;;;15.98;10.25;;;;;;;7.40;100.00;94962.16;5067619;28;20063;-66
2022/09/14 04:10:23;;;;;;;15.40;10.75;;;;;;;7.30;100.00;94954.84;5100563;27;20043;-66
2022/09/14 04:12:49;;;;;;;14.98;10.68;;;;;;;7.37;100.00;94960.78;5112835;27;20097;-67
2022/09/14 04:15:17;;;;;;;23.88;10.45;;;;;;;7.28;100.00;94956.84;5100033;27;20040;-66
2022/09/14 04:17:44;;;;;;;12.23;8.98;;;;;;;7.29;100.00;94955.84;5097757;27;20035;-66
2022/09/14 04:20:11;;;;;;;11.38;9.43;;;;;;;7.27;100.00;94965.63;5111029;27;20063;-66
2022/09/14 04:22:38;;;;;;;17.65;10.63;;;;;;;7.22;100.00;94953.28;5098438;27;20044;-67
2022/09/14 04:25:05;;;;;;;16.52;10.27;;;;;;;7.28;100.00;94959.44;5100347;28;20135;-66
2022/09/14 04:27:32;;;;;;;12.27;9.50;;;;;;;7.20;100.00;94951.91;5097686;27;20083;-66
2022/09/14 04:29:59;;;;;;;17.08;10.65;;;;;;;7.24;100.00;94960.88;5105488;27;20780;-67
2022/09/14 04:32:26;;;;;;;18.75;11.35;;;;;;;7.26;100.00;94953.69;5097931;27;20696;-66
2022/09/14 04:34:59;;;;;;;15.23;10.93;;;;;;;7.24;100.00;94950.50;5104493;27;20047;-66
2022/09/14 04:37:30;;;;;;;16.27;11.38;;;;;;;7.29;100.00;94953.25;5096662;27;20051;-66
2022/09/14 04:39:56;;;;;;;16.17;11.25;;;;;;;7.38;100.00;94952.03;5101895;27;20050;-66
2022/09/14 04:42:23;;;;;;;14.18;10.50;;;;;;;7.49;100.00;94967.91;5096799;27;20035;-66
2022/09/14 04:44:50;;;;;;;17.33;10.32;;;;;;;7.55;100.00;94967.09;5081430;27;20047;-66
2022/09/14 04:47:17;;;;;;;14.73;11.55;;;;;;;7.63;100.00;94970.22;5105191;27;20067;-66
2022/09/14 04:49:43;;;;;;;15.85;11.68;;;;;;;7.77;100.00;94970.13;5099793;27;20036;-67
2022/09/14 04:52:10;;;;;;;17.65;11.27;;;;;;;7.88;100.00;94966.06;5105422;27;20103;-66
2022/09/14 04:54:37;;;;;;;20.02;10.63;;;;;;;8.03;100.00;94979.53;5100609;27;20043;-66
2022/09/14 04:57:04;;;;;;;13.38;10.35;;;;;;;8.13;100.00;94969.47;5102664;27;20871;-66
2022/09/14 04:59:31;;;;;;;14.15;10.25;;;;;;;8.26;100.00;94972.97;5109756;27;20589;-66
2022/09/14 05:01:57;;;;;;;14.43;10.40;;;;;;;8.23;100.00;94941.25;5110605;27;20051;-65
2022/09/14 05:04:24;;;;;;;14.60;10.73;;;;;;;8.57;100.00;94980.72;5096477;28;20051;-66
2022/09/14 05:06:51;;;;;;;13.90;10.25;;;;;;;8.72;100.00;94982.97;5098028;28;20073;-65
2022/09/14 05:09:19;;;;;;;16.52;10.70;;;;;;;8.94;100.00;94974.75;5098339;27;20043;-67
2022/09/14 05:11:48;;;;;;;18.85;10.88;;;;;;;9.10;100.00;94983.78;5098350;27;20039;-66
2022/09/14 05:14:15;;;;;;;14.45;10.48;;;;;;;9.24;100.00;94977.41;5098135;28;20040;-67
2022/09/14 05:16:43;;;;;;;23.27;13.30;;;;;;;9.41;100.00;94976.81;5102371;27;20761;-66
2022/09/14 05:19:13;;;;;;;17.02;12.48;;;;;;;9.62;100.00;94978.94;5080235;28;20719;-66
2022/09/14 05:21:40;;;;;;;14.93;12.00;;;;;;;9.79;100.00;94986.09;5077161;28;20416;-67
2022/09/14 05:24:15;;;;;;;13.52;11.48;;;;;;;9.95;100.00;94985.47;5096898;27;20055;-65
2022/09/14 05:26:42;;;;;;;12.00;9.80;;;;;;;10.09;100.00;94992.06;5104373;27;20047;-66
2022/09/14 05:29:15;;;;;;;15.15;10.13;;;;;;;10.17;100.00;94982.34;5102376;27;20066;-67
2022/09/14 05:31:42;;;;;;;15.95;9.85;;;;;;;10.35;100.00;94990.09;5096481;27;20067;-66
2022/09/14 05:34:09;;;;;;;12.15;9.45;;;;;;;10.42;100.00;94995.19;5101647;28;20116;-66
2022/09/14 05:36:37;;;;;;;12.80;9.25;;;;;;;10.47;100.00;94998.69;5097340;27;20043;-67
2022/09/14 05:39:05;;;;;;;22.25;10.88;;;;;;;10.33;100.00;94971.28;5104111;27;20050;-67
2022/09/14 05:41:32;;;;;;;14.00;10.93;;;;;;;10.58;100.00;95007.53;5099479;28;20047;-66
2022/09/14 05:43:59;;;;;;;13.45;8.70;;;;;;;10.66;100.00;95006.41;5102166;27;20063;-66
2022/09/14 05:46:26;;;;;;;10.20;7.78;;;;;;;10.77;100.00;95008.22;5099090;27;20046;-65
2022/09/14 05:48:53;;;;;;;10.05;8.63;;;;;;;10.84;100.00;95011.50;5098096;28;20161;-66
2022/09/14 05:51:22;;;;;;;14.50;8.63;;;;;;;10.89;100.00;95016.84;5101501;28;20123;-66
2022/09/14 05:53:51;;;;;;;11.88;8.07;;;;;;;10.98;100.00;95014.66;5097166;28;20165;-66
2022/09/14 05:56:20;;;;;;;10.10;8.77;;;;;;;10.98;100.00;95003.44;5100414;28;20139;-66
2022/09/14 05:58:47;;;;;;;9.63;8.15;;;;;;;11.33;100.00;95023.47;5096555;28;20082;-66
2022/09/14 06:01:22;;;;;;;13.73;8.60;;;;;;;11.40;100.00;95016.31;5100559;28;20052;-65
2022/09/14 06:03:53;;;;;;;10.63;8.70;;;;;;;11.61;100.00;95033.94;5077265;28;20047;-66
2022/09/14 06:06:20;;;;;;;18.73;8.70;;;;;;;11.72;100.00;95026.28;5099436;28;20132;-66
2022/09/14 06:08:52;;;;;;;12.30;8.80;;;;;;;11.90;100.00;95023.50;5075831;28;20535;-66
2022/09/14 06:11:25;;;;;;;11.18;8.05;;;;;;;12.04;100.00;95027.41;5096626;28;20043;-67
2022/09/14 06:13:53;;;;;;;11.55;8.02;;;;;;;12.21;100.00;95026.66;5097200;28;20466;-67
2022/09/14 06:16:22;;;;;;;12.95;7.72;;;;;;;12.34;100.00;95023.72;5102677;28;20043;-67
2022/09/14 06:18:49;;;;;;;16.15;7.70;;;;;;;12.52;100.00;95016.69;5097023;28;20055;-66
2022/09/14 06:21:18;;;;;;;9.05;8.02;;;;;;;12.68;100.00;95021.13;5099232;28;20139;-67
2022/09/14 06:23:46;;;;;;;13.13;9.50;;;;;;;12.74;100.00;95017.53;5096818;28;20049;-66
2022/09/14 06:26:14;;;;;;;13.10;9.60;;;;;;;12.92;100.00;95026.16;5097905;28;20058;-67
2022/09/14 06:28:42;;;;;;;14.05;9.32;;;;;;;13.11;100.00;95027.47;5097388;28;20031;-67
2022/09/14 06:31:11;;;;;;;9.00;7.85;;;;;;;13.19;100.00;95037.50;5080718;28;20046;-66
2022/09/14 06:33:43;;;;;;;9.95;7.85;;;;;;;13.33;100.00;95029.34;5099049;28;20039;-67
2022/09/14 06:36:13;;;;;;;12.73;7.38;;;;;;;13.43;100.00;95032.06;5096267;27;20172;-66
2022/09/14 06:38:41;;;;;;;9.25;7.00;;;;;;;13.57;100.00;95017.59;5105224;27;20055;-66
2022/09/14 06:41:11;;;;;;;7.95;7.00;;;;;;;13.73;100.00;95015.16;5102121;27;20120;-67
2022/09/14 06:43:40;;;;;;;10.25;7.05;;;;;;;13.92;100.00;95019.03;5102933;27;20039;-67
2022/09/14 06:46:12;;;;;;;8.13;6.60;;;;;;;14.06;100.00;95021.22;5106422;27;20035;-66
2022/09/14 06:48:49;;;;;;;9.25;7.15;;;;;;;14.10;100.00;95019.72;5100329;27;20048;-67
2022/09/14 06:51:17;;;;;;;9.93;6.57;;;;;;;14.22;100.00;95022.94;5101547;27;20543;-67
2022/09/14 06:53:46;;;;;;;10.52;6.05;;;;;;;14.30;100.00;95014.66;5102716;27;20047;-71
2022/09/14 06:56:14;;;;;;;12.63;6.13;;;;;;;14.47;100.00;95013.72;5100224;27;20702;-70
2022/09/14 06:58:41;;;;;;;7.97;6.22;;;;;;;14.64;100.00;95018.84;5082687;28;20062;-71
2022/09/14 07:01:13;;;;;;;6.90;5.55;;;;;;;14.86;100.00;95018.75;5085159;27;20892;-72
2022/09/14 07:03:45;;;;;;;6.40;5.70;;;;;;;14.68;100.00;94986.66;5083897;27;20566;-76
2022/09/14 07:06:19;;;;;;;5.72;5.13;;;;;;;14.94;98.85;95022.72;5067969;27;20044;-75
2022/09/14 07:08:47;;;;;;;6.75;5.53;;;;;;;15.07;98.65;95027.50;5100327;27;20879;-72
2022/09/14 07:11:16;;;;;;;6.90;6.20;;;;;;;15.18;99.42;95017.88;5082372;27;20459;-72
2022/09/14 07:13:44;;;;;;;8.70;6.03;;;;;;;15.39;97.44;95018.75;5077498;28;20055;-72
2022/09/14 07:16:11;;;;;;;8.02;5.45;;;;;;;15.44;96.87;95022.19;5100688;27;20118;-72
2022/09/14 07:18:39;;;;;;;6.60;5.10;;;;;;;15.62;96.79;95017.53;5094009;27;20051;-71
2022/09/14 07:21:09;;;;;;;6.53;4.65;;;;;;;15.82;96.32;95020.25;5099203;27;20052;-72
2022/09/14 07:23:39;;;;;;;7.57;5.55;;;;;;;15.95;95.38;95026.06;5095729;27;20043;-72
2022/09/14 07:26:07;;;;;;;8.45;5.72;;;;;;;16.18;94.77;95019.53;5083569;27;20039;-72
2022/09/14 07:28:35;;;;;;;6.68;5.30;;;;;;;16.45;95.35;95021.91;5061148;27;20125;-73
2022/09/14 07:31:03;;;;;;;8.18;5.32;;;;;;;16.39;93.54;94973.81;5101799;27;20170;-72
2022/09/14 07:33:31;;;;;;;6.22;4.60;;;;;;;16.79;90.66;95009.00;5100572;27;20059;-69
2022/09/14 07:36:09;;;;;;;10.13;5.70;;;;;;;17.05;90.80;95016.09;5118789;27;20107;-72
2022/09/14 07:38:36;;;;;;;6.18;4.35;;;;;;;17.24;81.52;95014.47;5098384;27;20535;-72
2022/09/14 07:41:20;;;;;;;5.10;4.32;;;;;;;17.01;79.25;95010.56;5104084;27;20090;-72
2022/09/14 07:43:53;;;;;;;7.88;4.35;;;;;;;16.96;81.50;94995.59;5082273;27;20047;-74
2022/09/14 07:46:20;;;;;;;6.05;4.60;;;;;;;17.04;79.71;95004.00;5082989;28;20051;-74
2022/09/14 07:48:53;;;;;;;8.18;4.68;;;;;;;17.05;78.81;95000.31;5100875;27;20512;-74
2022/09/14 07:51:20;;;;;;;6.13;4.78;;;;;;;17.13;78.95;94997.13;5080986;28;20305;-74
2022/09/14 07:53:47;;;;;;;5.03;4.32;;;;;;;17.35;77.50;95009.97;5083203;28;20039;-73
2022/09/14 07:56:15;;;;;;;6.50;4.35;;;;;;;17.54;77.25;95018.06;5100715;27;20540;-68
2022/09/14 07:58:43;;;;;;;8.52;4.40;;;;;;;17.60;77.30;95016.97;5095274;27;20358;-68
2022/09/14 08:01:18;;;;;;;7.38;4.18;;;;;;;17.84;75.54;95016.31;5098877;27;20054;-70
2022/09/14 08:03:47;;;;;;;4.55;4.07;;;;;;;17.99;75.24;95005.75;5098370;27;20035;-70
2022/09/14 08:06:19;;;;;;;7.00;3.75;;;;;;;18.13;73.79;95008.53;5099153;27;20036;-67
2022/09/14 08:08:48;;;;;;;4.10;3.58;;;;;;;18.32;73.78;95012.09;5100850;27;20051;-67
2022/09/14 08:11:28;;;;;;;6.43;3.22;;;;;;;18.38;71.82;95015.47;5098559;27;20049;-68
2022/09/14 08:14:03;;;;;;;6.03;3.40;;;;;;;18.47;70.71;95007.75;5079913;28;20505;-67
2022/09/14 08:16:33;;;;;;;5.30;3.90;;;;;;;18.66;69.79;95015.81;5097396;27;20508;-71
2022/09/14 08:19:03;;;;;;;4.93;3.42;;;;;;;18.72;68.29;95009.41;5090191;28;20760;-73
2022/09/14 08:21:31;;;;;;;5.38;3.80;;;;;;;18.87;68.66;95006.66;5082333;28;20052;-73
2022/09/14 08:24:01;;;;;;;7.13;3.75;;;;;;;19.08;68.12;95001.16;5101727;27;20562;-69
2022/09/14 08:26:28;;;;;;;8.40;4.25;;;;;;;19.25;66.44;95000.75;5079581;28;20512;-66
2022/09/14 08:28:56;;;;;;;14.40;4.10;;;;;;;19.31;66.34;94993.53;5097198;27;20063;-72
2022/09/14 08:31:25;;;;;;;4.53;3.55;;;;;;;19.41;66.39;94977.56;5111662;27;20057;-68
2022/09/14 08:34:00;;;;;;;6.57;4.15;;;;;;;19.59;63.33;94982.13;5099143;27;20067;-68
2022/09/14 08:36:39;;;;;;;13.85;3.85;;;;;;;19.83;62.31;94995.28;5097806;27;20719;-69
2022/09/14 08:39:08;;;;;;;8.55;4.15;;;;;;;19.97;61.25;95000.66;5077718;28;20046;-68
2022/09/14 08:41:44;;;;;;;4.30;3.60;;;;;;;20.10;60.12;94993.88;5099376;27;20056;-68
2022/09/14 08:44:23;;;;;;;7.72;3.88;;;;;;;20.14;61.55;94999.38;5097695;27;20130;-66
2022/09/14 08:47:06;;;;;;;12.25;4.57;;;;;;;20.05;61.06;94992.06;5098893;27;20050;-67
2022/09/14 08:50:01;;;;;;;6.43;4.85;;;;;;;20.17;59.74;94989.00;5093276;27;20583;-68
2022/09/14 08:52:46;;;;;;;6.30;4.45;;;;;;;20.24;60.43;94986.78;5094663;27;20031;-68
2022/09/14 08:55:24;;;;;;;8.23;4.40;;;;;;;20.41;59.56;94999.47;5098399;27;20446;-68
2022/09/14 08:57:56;;;;;;;11.13;5.07;;;;;;;20.60;59.58;95001.31;5096631;27;20146;-71
2022/09/14 09:00:31;;;;;;;8.68;4.65;;;;;;;20.52;58.87;94962.28;5080686;27;20035;-72
2022/09/14 09:03:19;;;;;;;9.15;5.82;;;;;;;20.87;58.63;94994.50;5107162;27;20113;-72
2022/09/14 09:06:09;;;;;;;11.55;4.93;;;;;;;20.76;58.73;94978.84;5094922;27;20051;-70
2022/09/14 09:09:01;;;;;;;5.60;4.07;;;;;;;20.87;58.72;94994.50;5095609;27;20051;-70
2022/09/14 09:11:36;;;;;;;7.38;4.85;;;;;;;20.96;57.35;94987.50;5098878;27;20040;-70
2022/09/14 09:14:17;;;;;;;6.72;3.45;;;;;;;21.00;58.17;94989.25;5096555;28;20039;-70
2022/09/14 09:16:48;;;;;;;6.57;4.50;;;;;;;21.25;56.63;94994.34;5101012;27;20136;-70
2022/09/14 09:19:29;;;;;;;7.22;4.25;;;;;;;21.27;57.96;94981.63;5100484;27;20808;-70
2022/09/14 09:21:59;;;;;;;10.98;3.63;;;;;;;21.33;57.41;94977.78;5099381;27;20118;-70
2022/09/14 09:24:36;;;;;;;4.50;3.47;;;;;;;21.58;57.04;94971.22;5095481;28;20035;-70
2022/09/14 09:27:14;;;;;;;10.70;3.38;;;;;;;21.69;56.31;94966.47;5096156;27;20044;-70
2022/09/14 09:29:42;;;;;;;6.68;3.97;;;;;;;21.58;54.64;94950.78;5097925;27;21223;-69
2022/09/14 09:32:16;;;;;;;3.97;3.17;;;;;;;21.90;55.20;94983.50;5097525;28;20411;-70
2022/09/14 09:35:06;;;;;;;5.07;3.53;;;;;;;21.93;54.44;94964.38;5090223;27;20087;-70
2022/09/14 09:38:18;;;;;;;5.80;3.10;;;;;;;22.32;54.82;94972.78;5072543;28;20089;-70
2022/09/14 09:40:55;;;;;;;14.52;3.67;;;;;;;22.57;52.60;94963.44;5097456;27;20545;-70
2022/09/14 09:43:22;;;;;;;8.00;3.15;;;;;;;22.81;51.00;94972.91;5097341;28;20517;-68
2022/09/14 09:46:11;;;;;;;5.47;2.70;;;;;;;22.95;49.29;94973.63;5078323;28;20120;-70
2022/09/14 09:48:40;;;;;;;4.72;2.45;;;;;;;23.03;48.91;94970.22;5097391;28;20047;-70
2022/09/14 09:51:14;;;;;;;3.78;3.03;;;;;;;23.15;49.70;94971.53;5098046;28;20054;-69
2022/09/14 09:53:52;;;;;;;11.52;3.05;;;;;;;23.19;49.60;94965.31;5062616;28;20486;-70
2022/09/14 09:56:25;;;;;;;7.55;3.22;;;;;;;23.37;49.44;94958.19;5080154;28;20052;-71
2022/09/14 09:58:52;;;;;;;5.38;2.80;;;;;;;23.63;48.06;94965.44;5094836;28;20058;-75
2022/09/14 10:01:34;;;;;;;4.43;2.70;;;;;;;23.63;47.27;94965.44;5110613;28;20131;-73
2022/09/14 10:04:03;;;;;;;4.03;3.17;;;;;;;23.49;46.88;94954.91;5119380;28;20032;-74
2022/09/14 10:06:31;;;;;;;4.18;3.33;;;;;;;23.52;47.00;94966.81;5109168;28;20059;-74
2022/09/14 10:08:58;;;;;;;5.07;2.97;;;;;;;23.52;47.84;94956.97;5078497;28;20043;-71
2022/09/14 10:11:44;;;;;;;6.53;3.70;;;;;;;23.60;47.66;94966.03;5097110;28;20052;-70
2022/09/14 10:14:27;;;;;;;3.47;2.60;;;;;;;23.84;46.15;94955.78;5103690;27;20044;-70
2022/09/14 10:17:04;;;;;;;4.43;3.15;;;;;;;23.93;46.55;94952.31;5083891;27;20039;-71
2022/09/14 10:19:32;;;;;;;6.25;3.00;;;;;;;24.07;45.52;94942.31;5098809;27;20128;-70
2022/09/14 10:22:14;;;;;;;4.20;2.58;;;;;;;24.13;45.55;94943.72;5085013;27;20055;-70
2022/09/14 10:24:56;;;;;;;6.07;2.90;;;;;;;24.37;45.32;94950.44;5097401;27;20042;-71
2022/09/14 10:27:47;;;;;;;5.32;3.53;;;;;;;24.69;44.22;94945.72;5100647;27;20731;-70
2022/09/14 10:30:17;;;;;;;6.13;2.88;;;;;;;25.02;44.66;94942.47;5077727;28;20047;-71
2022/09/14 10:33:01;;;;;;;5.20;2.17;;;;;;;24.98;41.79;94937.00;5101160;27;21449;-71
2022/09/14 10:35:54;;;;;;;4.93;2.57;;;;;;;25.14;41.97;94945.22;5077897;28;20047;-70
2022/09/14 10:38:37;;;;;;;7.20;2.47;;;;;;;25.38;42.49;94934.00;5102578;27;20504;-70
2022/09/14 10:41:24;;;;;;;3.53;2.30;;;;;;;25.43;41.65;94941.03;5098812;27;20467;-70
2022/09/14 10:44:22;;;;;;;1.98;1.77;;;;;;;25.49;40.24;94929.06;5102269;27;20047;-70
2022/09/14 10:47:10;;;;;;;6.20;2.53;;;;;;;25.46;40.91;94929.72;5098329;27;20039;-67
2022/09/14 10:50:10;;;;;;;4.53;2.50;;;;;;;25.45;40.53;94920.16;5100795;27;20101;-76
2022/09/14 10:52:42;;;;;;;7.88;2.42;;;;;;;25.56;38.18;94932.00;5100750;28;20047;-67
2022/09/14 10:55:33;;;;;;;8.57;1.95;;;;;;;25.73;39.67;94921.22;5099631;27;20729;-67
2022/09/14 10:58:16;;;;;;;4.28;2.00;;;;;;;25.76;38.58;94927.78;5081803;27;20059;-67
2022/09/14 11:01:25;;;;;;;4.20;2.20;;;;;;;25.72;37.86;94916.97;5101427;27;20109;-67
2022/09/14 11:04:17;;;;;;;4.50;2.28;;;;;;;25.84;38.24;94918.16;5082596;28;20047;-67
2022/09/14 11:07:11;;;;;;;5.15;2.08;;;;;;;26.28;38.33;94916.69;5099217;27;20039;-67
2022/09/14 11:10:11;;;;;;;2.85;1.85;;;;;;;26.32;37.79;94916.81;5090396;27;20047;-68
2022/09/14 11:13:04;;;;;;;6.10;1.90;;;;;;;26.60;37.46;94916.25;5100996;27;20072;-67
2022/09/14 11:15:37;;;;;;;3.15;2.17;;;;;;;26.39;36.91;94922.41;5071722;27;20055;-67
2022/09/14 11:18:20;;;;;;;2.83;1.77;;;;;;;26.74;36.36;94919.41;5104092;27;20043;-68
2022/09/14 11:21:19;;;;;;;4.00;2.25;;;;;;;26.98;36.33;94910.63;5104075;27;20087;-67
2022/09/14 11:23:56;;;;;;;4.82;1.85;;;;;;;27.29;35.51;94919.25;5063140;27;20405;-68
2022/09/14 11:26:30;;;;;;;4.95;2.65;;;;;;;27.12;36.66;94915.66;5109203;27;20092;-68
2022/09/14 11:29:15;;;;;;;6.88;1.85;;;;;;;27.22;36.32;94911.75;5107039;27;20538;-68
2022/09/14 11:31:53;;;;;;;5.65;1.95;;;;;;;27.69;34.39;94921.19;5112026;27;20399;-68
2022/09/14 11:34:47;;;;;;;8.13;2.90;;;;;;;27.43;33.88;94914.31;5106507;27;20035;-67
2022/09/14 11:37:18;;;;;;;3.03;1.65;;;;;;;27.58;33.05;94900.25;5109861;27;20054;-67
2022/09/14 11:40:00;;;;;;;3.95;1.30;;;;;;;27.67;31.54;94902.03;5107161;27;20043;-69
2022/09/14 11:42:34;;;;;;;6.60;1.33;;;;;;;27.54;31.93;94883.31;5106735;27;20039;-69
2022/09/14 11:45:06;;;;;;;4.78;1.38;;;;;;;27.88;31.76;94886.56;5087783;27;20046;-70
2022/09/14 11:47:39;;;;;;;1.50;1.15;;;;;;;27.80;30.10;94884.78;5114252;27;20643;-70
2022/09/14 11:50:16;;;;;;;3.55;1.00;;;;;;;27.98;29.18;94891.47;5101478;27;20047;-71
2022/09/14 11:52:43;;;;;;;2.28;1.02;;;;;;;28.19;28.05;94885.13;5109419;27;20047;-70
2022/09/14 11:55:16;;;;;;;2.42;1.02;;;;;;;28.51;28.99;94882.50;5102503;27;20035;-70
2022/09/14 11:57:45;;;;;;;1.50;0.90;;;;;;;28.52;27.04;94881.38;5107522;27;20058;-71